createdAt,value
2022-07-26T00:00:59.907Z,0.00
2022-07-26T00:01:59.839Z,0.00
2022-07-26T00:02:59.860Z,0.00
2022-07-26T00:03:59.788Z,0.00
2022-07-26T00:04:59.694Z,0.00
2022-07-26T00:05:59.695Z,0.00
2022-07-26T00:06:59.536Z,0.00
2022-07-26T00:07:59.503Z,0.00
2022-07-26T00:08:59.512Z,0.00
2022-07-26T00:09:59.417Z,0.00
2022-07-26T00:10:59.324Z,0.00
2022-07-26T00:11:59.259Z,0.00
2022-07-26T00:12:59.164Z,0.00
2022-07-26T00:13:59.137Z,0.00
2022-07-26T00:14:59.072Z,0.00
2022-07-26T00:15:59.070Z,0.00
2022-07-26T00:16:59.093Z,0.00
2022-07-26T00:17:58.964Z,0.00
2022-07-26T00:18:58.859Z,0.00
2022-07-26T00:19:58.800Z,0.00
2022-07-26T00:20:58.726Z,0.00
2022-07-26T00:21:58.671Z,0.00
2022-07-26T00:22:58.609Z,0.00
2022-07-26T00:23:58.516Z,0.00
2022-07-26T00:24:58.589Z,0.00
2022-07-26T00:25:58.493Z,0.00
2022-07-26T00:26:58.397Z,0.00
2022-07-26T00:27:58.300Z,0.00
2022-07-26T00:28:58.340Z,0.00
2022-07-26T00:29:58.234Z,0.00
2022-07-26T00:30:58.162Z,0.00
2022-07-26T00:31:58.123Z,0.00
2022-07-26T00:32:58.038Z,0.00
2022-07-26T00:33:57.903Z,0.00
2022-07-26T00:34:57.847Z,0.00
2022-07-26T00:35:57.789Z,0.00
2022-07-26T00:36:57.726Z,0.00
2022-07-26T00:37:57.673Z,0.00
2022-07-26T00:38:57.606Z,0.00
2022-07-26T00:39:57.555Z,0.00
2022-07-26T00:40:57.502Z,0.00
2022-07-26T00:41:57.442Z,0.00
2022-07-26T00:42:57.385Z,0.00
2022-07-26T00:43:57.314Z,0.00
2022-07-26T00:44:57.248Z,0.00
2022-07-26T00:45:57.244Z,0.00
2022-07-26T00:46:57.134Z,0.00
2022-07-26T00:47:57.072Z,0.00
2022-07-26T00:48:57.102Z,0.00
2022-07-26T00:49:56.955Z,0.00
2022-07-26T00:50:56.901Z,0.00
2022-07-26T00:51:56.835Z,0.00
2022-07-26T00:52:56.818Z,0.00
2022-07-26T00:53:56.722Z,0.00
2022-07-26T00:54:56.653Z,0.00
2022-07-26T00:55:56.597Z,0.00
2022-07-26T00:56:56.536Z,0.00
2022-07-26T00:57:56.478Z,0.00
2022-07-26T00:58:56.454Z,0.00
2022-07-26T00:59:56.358Z,0.00
2022-07-26T01:00:56.324Z,0.00
2022-07-26T01:01:56.446Z,0.00
2022-07-26T01:02:56.230Z,0.00
2022-07-26T01:03:56.123Z,0.00
2022-07-26T01:04:56.062Z,0.00
2022-07-26T01:05:56.004Z,0.00
2022-07-26T01:06:55.945Z,0.00
2022-07-26T01:07:55.885Z,0.00
2022-07-26T01:08:55.825Z,0.00
2022-07-26T01:09:55.770Z,0.00
2022-07-26T01:10:55.706Z,0.00
2022-07-26T01:11:55.647Z,0.00
2022-07-26T01:12:55.591Z,0.00
2022-07-26T01:13:55.533Z,0.00
2022-07-26T01:14:55.469Z,0.00
2022-07-26T01:15:55.479Z,0.00
2022-07-26T01:16:55.352Z,0.00
2022-07-26T01:17:55.293Z,0.00
2022-07-26T01:18:55.232Z,0.00
2022-07-26T01:19:55.178Z,0.00
2022-07-26T01:20:55.114Z,0.00
2022-07-26T01:21:55.061Z,0.00
2022-07-26T01:22:54.997Z,0.00
2022-07-26T01:23:54.941Z,0.00
2022-07-26T01:24:54.878Z,0.00
2022-07-26T01:25:54.822Z,0.00
2022-07-26T01:26:54.761Z,0.00
2022-07-26T01:27:54.709Z,0.00
2022-07-26T01:28:54.646Z,0.00
2022-07-26T01:29:54.584Z,0.00
2022-07-26T01:30:54.556Z,0.00
2022-07-26T01:31:54.465Z,0.00
2022-07-26T01:32:54.404Z,0.00
2022-07-26T01:33:54.352Z,0.00
2022-07-26T01:34:54.292Z,0.00
2022-07-26T01:35:54.230Z,0.00
2022-07-26T01:36:54.170Z,0.00
2022-07-26T01:37:54.112Z,0.00
2022-07-26T01:38:54.051Z,0.00
2022-07-26T01:39:53.992Z,0.00
2022-07-26T01:40:53.935Z,0.00
2022-07-26T01:41:53.874Z,0.00
2022-07-26T01:42:53.813Z,0.00
2022-07-26T01:43:54.552Z,0.00
2022-07-26T01:44:53.693Z,0.00
2022-07-26T01:45:54.620Z,0.00
2022-07-26T01:46:53.579Z,0.00
2022-07-26T01:47:53.521Z,0.00
2022-07-26T01:48:53.535Z,0.00
2022-07-26T01:49:53.400Z,0.00
2022-07-26T01:50:53.346Z,0.00
2022-07-26T01:51:53.280Z,0.00
2022-07-26T01:52:53.219Z,0.00
2022-07-26T01:53:53.169Z,0.00
2022-07-26T01:54:53.101Z,0.00
2022-07-26T01:55:53.046Z,0.00
2022-07-26T01:56:52.985Z,0.00
2022-07-26T01:57:52.926Z,0.00
2022-07-26T01:58:52.865Z,0.00
2022-07-26T01:59:52.807Z,0.00
2022-07-26T02:00:52.744Z,0.00
2022-07-26T02:01:52.774Z,0.00
2022-07-26T02:02:52.747Z,0.00
2022-07-26T02:03:52.570Z,0.00
2022-07-26T02:04:52.508Z,0.00
2022-07-26T02:05:52.462Z,0.00
2022-07-26T02:06:52.393Z,0.00
2022-07-26T02:07:52.332Z,0.00
2022-07-26T02:08:52.273Z,0.00
2022-07-26T02:09:52.218Z,0.00
2022-07-26T02:10:52.160Z,0.00
2022-07-26T02:11:52.101Z,0.00
2022-07-26T02:12:52.035Z,0.00
2022-07-26T02:13:53.333Z,0.00
2022-07-26T02:14:51.916Z,0.00
2022-07-26T02:15:51.918Z,0.00
2022-07-26T02:16:51.813Z,0.00
2022-07-26T02:17:51.742Z,0.00
2022-07-26T02:18:51.681Z,0.00
2022-07-26T02:19:51.623Z,0.00
2022-07-26T02:20:51.562Z,0.00
2022-07-26T02:21:51.508Z,0.00
2022-07-26T02:22:51.446Z,0.00
2022-07-26T02:23:51.388Z,0.00
2022-07-26T02:24:51.326Z,0.00
2022-07-26T02:25:51.270Z,0.00
2022-07-26T02:26:51.212Z,0.00
2022-07-26T02:27:51.149Z,0.00
2022-07-26T02:28:51.092Z,0.00
2022-07-26T02:29:51.032Z,0.00
2022-07-26T02:30:51.009Z,0.00
2022-07-26T02:31:50.954Z,0.00
2022-07-26T02:32:50.854Z,0.00
2022-07-26T02:33:50.799Z,0.00
2022-07-26T02:34:50.734Z,0.00
2022-07-26T02:35:50.701Z,0.00
2022-07-26T02:36:50.627Z,0.00
2022-07-26T02:37:50.558Z,0.00
2022-07-26T02:38:50.539Z,0.00
2022-07-26T02:39:50.475Z,0.00
2022-07-26T02:40:50.403Z,0.00
2022-07-26T02:41:50.318Z,0.00
2022-07-26T02:42:50.261Z,0.00
2022-07-26T02:43:50.199Z,0.00
2022-07-26T02:44:50.143Z,0.00
2022-07-26T02:46:01.677Z,0.00
2022-07-26T02:46:50.071Z,0.00
2022-07-26T02:47:49.966Z,0.00
2022-07-26T02:48:49.989Z,0.00
2022-07-26T02:49:49.862Z,4.00
2022-07-26T02:50:49.788Z,4.00
2022-07-26T02:51:49.731Z,4.00
2022-07-26T02:52:49.673Z,0.00
2022-07-26T02:53:49.608Z,0.00
2022-07-26T02:54:49.548Z,4.00
2022-07-26T02:55:49.499Z,4.00
2022-07-26T02:56:49.434Z,0.00
2022-07-26T02:57:49.384Z,4.00
2022-07-26T02:58:49.324Z,4.00
2022-07-26T02:59:49.252Z,8.00
2022-07-26T03:00:49.193Z,4.00
2022-07-26T03:01:50.134Z,4.00
2022-07-26T03:02:49.184Z,8.00
2022-07-26T03:03:51.014Z,4.00
2022-07-26T03:04:48.956Z,8.00
2022-07-26T03:05:48.894Z,8.00
2022-07-26T03:06:48.856Z,8.00
2022-07-26T03:07:48.773Z,12.00
2022-07-26T03:08:48.714Z,8.00
2022-07-26T03:09:48.659Z,12.00
2022-07-26T03:10:48.599Z,12.00
2022-07-26T03:11:48.539Z,12.00
2022-07-26T03:12:48.482Z,12.00
2022-07-26T03:13:48.442Z,16.00
2022-07-26T03:14:48.362Z,16.00
2022-07-26T03:15:48.361Z,20.00
2022-07-26T03:16:48.243Z,20.00
2022-07-26T03:17:48.184Z,20.00
2022-07-26T03:18:48.125Z,20.00
2022-07-26T03:19:48.058Z,24.00
2022-07-26T03:20:48.002Z,24.00
2022-07-26T03:21:47.939Z,24.00
2022-07-26T03:22:47.883Z,28.00
2022-07-26T03:23:47.823Z,32.00
2022-07-26T03:24:47.764Z,36.00
2022-07-26T03:25:47.703Z,36.00
2022-07-26T03:26:47.646Z,40.00
2022-07-26T03:27:47.582Z,40.00
2022-07-26T03:28:47.529Z,44.00
2022-07-26T03:29:47.462Z,48.00
2022-07-26T03:30:47.466Z,52.00
2022-07-26T03:31:47.344Z,56.00
2022-07-26T03:32:47.287Z,60.00
2022-07-26T03:33:48.094Z,64.00
2022-07-26T03:34:47.170Z,72.00
2022-07-26T03:35:47.107Z,76.00
2022-07-26T03:36:47.049Z,80.00
2022-07-26T03:37:46.992Z,84.00
2022-07-26T03:38:46.928Z,88.00
2022-07-26T03:39:46.869Z,92.00
2022-07-26T03:40:46.811Z,92.00
2022-07-26T03:41:46.751Z,96.00
2022-07-26T03:42:46.711Z,100.00
2022-07-26T03:43:46.633Z,108.00
2022-07-26T03:44:46.571Z,112.00
2022-07-26T03:45:46.581Z,120.00
2022-07-26T03:46:46.582Z,128.00
2022-07-26T03:47:46.392Z,136.00
2022-07-26T03:48:46.363Z,144.00
2022-07-26T03:49:46.270Z,152.00
2022-07-26T03:50:46.222Z,164.00
2022-07-26T03:51:46.152Z,172.00
2022-07-26T03:52:46.094Z,180.00
2022-07-26T03:53:46.032Z,188.00
2022-07-26T03:54:45.993Z,200.00
2022-07-26T03:55:45.938Z,204.00
2022-07-26T03:56:45.859Z,212.00
2022-07-26T03:57:45.797Z,220.00
2022-07-26T03:58:45.741Z,232.00
2022-07-26T03:59:45.678Z,236.00
2022-07-26T04:00:45.653Z,244.00
2022-07-26T04:01:45.633Z,256.00
2022-07-26T04:02:45.532Z,260.00
2022-07-26T04:03:47.769Z,264.00
2022-07-26T04:04:45.381Z,272.00
2022-07-26T04:05:48.943Z,276.00
2022-07-26T04:06:45.288Z,280.00
2022-07-26T04:07:52.440Z,292.00
2022-07-26T04:08:45.140Z,300.00
2022-07-26T04:09:45.078Z,304.00
2022-07-26T04:10:45.022Z,308.00
2022-07-26T04:11:44.963Z,312.00
2022-07-26T04:12:44.901Z,320.00
2022-07-26T04:13:44.840Z,328.00
2022-07-26T04:14:44.783Z,332.00
2022-07-26T04:15:44.720Z,340.00
2022-07-26T04:16:44.687Z,348.00
2022-07-26T04:17:44.607Z,348.00
2022-07-26T04:18:44.543Z,356.00
2022-07-26T04:19:44.489Z,360.00
2022-07-26T04:20:44.448Z,360.00
2022-07-26T04:21:44.365Z,364.00
2022-07-26T04:22:44.308Z,368.00
2022-07-26T04:23:49.212Z,376.00
2022-07-26T04:24:44.188Z,384.00
2022-07-26T04:25:44.134Z,384.00
2022-07-26T04:26:44.070Z,392.00
2022-07-26T04:27:44.012Z,400.00
2022-07-26T04:28:44.017Z,412.00
2022-07-26T04:29:43.909Z,424.00
2022-07-26T04:30:43.903Z,440.00
2022-07-26T04:31:43.793Z,452.00
2022-07-26T04:32:43.727Z,464.00
2022-07-26T04:33:43.659Z,476.00
2022-07-26T04:34:43.629Z,492.00
2022-07-26T04:35:43.536Z,508.00
2022-07-26T04:36:43.476Z,528.00
2022-07-26T04:37:43.421Z,548.00
2022-07-26T04:38:43.352Z,556.00
2022-07-26T04:39:43.290Z,572.00
2022-07-26T04:40:43.254Z,580.00
2022-07-26T04:41:43.173Z,600.00
2022-07-26T04:42:43.121Z,620.00
2022-07-26T04:43:43.071Z,628.00
2022-07-26T04:44:42.995Z,652.00
2022-07-26T04:45:43.013Z,668.00
2022-07-26T04:46:45.193Z,672.00
2022-07-26T04:47:42.817Z,668.00
2022-07-26T04:48:42.815Z,688.00
2022-07-26T04:49:42.699Z,696.00
2022-07-26T04:50:42.642Z,712.00
2022-07-26T04:51:42.582Z,736.00
2022-07-26T04:52:42.523Z,748.00
2022-07-26T04:53:42.513Z,764.00
2022-07-26T04:54:42.427Z,764.00
2022-07-26T04:55:42.369Z,784.00
2022-07-26T04:56:42.297Z,796.00
2022-07-26T04:57:42.238Z,836.00
2022-07-26T04:58:42.218Z,864.00
2022-07-26T04:59:42.104Z,884.00
2022-07-26T05:01:10.769Z,900.00
2022-07-26T05:01:42.040Z,920.00
2022-07-26T05:02:41.997Z,960.00
2022-07-26T05:03:41.868Z,972.00
2022-07-26T05:04:41.829Z,1012.00
2022-07-26T05:05:41.755Z,1016.00
2022-07-26T05:06:41.696Z,1116.00
2022-07-26T05:07:41.646Z,1196.00
2022-07-26T05:08:41.588Z,1304.00
2022-07-26T05:09:41.511Z,1240.00
2022-07-26T05:10:44.129Z,1144.00
2022-07-26T05:11:41.391Z,1304.00
2022-07-26T05:12:41.335Z,1420.00
2022-07-26T05:13:41.308Z,1520.00
2022-07-26T05:14:41.242Z,1392.00
2022-07-26T05:15:42.778Z,1692.00
2022-07-26T05:16:44.423Z,1780.00
2022-07-26T05:17:41.057Z,1588.00
2022-07-26T05:18:45.522Z,1752.00
2022-07-26T05:19:43.774Z,2204.00
2022-07-26T05:20:40.900Z,1528.00
2022-07-26T05:21:41.037Z,1476.00
2022-07-26T05:22:40.778Z,1600.00
2022-07-26T05:23:40.711Z,1904.00
2022-07-26T05:24:40.628Z,2204.00
2022-07-26T05:25:40.567Z,2164.00
2022-07-26T05:26:40.530Z,2820.00
2022-07-26T05:27:40.491Z,2720.00
2022-07-26T05:28:40.407Z,3864.00
2022-07-26T05:29:40.377Z,3728.00
2022-07-26T05:30:40.367Z,3552.00
2022-07-26T05:31:40.230Z,2564.00
2022-07-26T05:32:40.174Z,1584.00
2022-07-26T05:33:40.120Z,3420.00
2022-07-26T05:34:40.048Z,3184.00
2022-07-26T05:35:39.975Z,3364.00
2022-07-26T05:36:39.949Z,3276.00
2022-07-26T05:37:39.887Z,2760.00
2022-07-26T05:38:39.818Z,3212.00
2022-07-26T05:39:39.775Z,4560.00
2022-07-26T05:40:39.689Z,4784.00
2022-07-26T05:41:39.631Z,4372.00
2022-07-26T05:42:39.583Z,4720.00
2022-07-26T05:43:41.806Z,3940.00
2022-07-26T05:44:42.530Z,3840.00
2022-07-26T05:45:39.483Z,4772.00
2022-07-26T05:46:39.370Z,4988.00
2022-07-26T05:47:39.290Z,4820.00
2022-07-26T05:48:39.304Z,4812.00
2022-07-26T05:49:40.340Z,5520.00
2022-07-26T05:50:39.123Z,5160.00
2022-07-26T05:51:39.046Z,3816.00
2022-07-26T05:52:39.005Z,5452.00
2022-07-26T05:53:38.948Z,4332.00
2022-07-26T05:54:38.884Z,4544.00
2022-07-26T05:55:38.826Z,3448.00
2022-07-26T05:56:38.785Z,5156.00
2022-07-26T05:57:39.729Z,5652.00
2022-07-26T05:58:38.652Z,3956.00
2022-07-26T05:59:38.581Z,4000.00
2022-07-26T06:00:38.573Z,3144.00
2022-07-26T06:01:38.468Z,5232.00
2022-07-26T06:02:38.492Z,5176.00
2022-07-26T06:03:38.412Z,5976.00
2022-07-26T06:04:38.443Z,4908.00
2022-07-26T06:05:38.244Z,5840.00
2022-07-26T06:06:38.186Z,5472.00
2022-07-26T06:07:38.156Z,5416.00
2022-07-26T06:08:38.090Z,5908.00
2022-07-26T06:09:38.048Z,4540.00
2022-07-26T06:10:37.971Z,4348.00
2022-07-26T06:11:37.920Z,6372.00
2022-07-26T06:12:37.842Z,6484.00
2022-07-26T06:13:37.794Z,6748.00
2022-07-26T06:14:37.730Z,6728.00
2022-07-26T06:15:37.668Z,6488.00
2022-07-26T06:16:37.718Z,6416.00
2022-07-26T06:17:37.583Z,5852.00
2022-07-26T06:18:37.500Z,5872.00
2022-07-26T06:19:37.455Z,5784.00
2022-07-26T06:20:37.450Z,5384.00
2022-07-26T06:21:37.328Z,5644.00
2022-07-26T06:22:37.279Z,5428.00
2022-07-26T06:23:37.224Z,5100.00
2022-07-26T06:24:37.175Z,5016.00
2022-07-26T06:25:37.105Z,4468.00
2022-07-26T06:26:37.084Z,1644.00
2022-07-26T06:27:37.002Z,3080.00
2022-07-26T06:28:36.955Z,3468.00
2022-07-26T06:29:36.887Z,3180.00
2022-07-26T06:30:36.886Z,3792.00
2022-07-26T06:31:36.816Z,4764.00
2022-07-26T06:32:36.722Z,4308.00
2022-07-26T06:33:36.651Z,4076.00
2022-07-26T06:34:36.602Z,3744.00
2022-07-26T06:35:36.547Z,3732.00
2022-07-26T06:36:36.521Z,3384.00
2022-07-26T06:37:36.428Z,3160.00
2022-07-26T06:38:36.394Z,3184.00
2022-07-26T06:39:36.334Z,3792.00
2022-07-26T06:40:36.263Z,4652.00
2022-07-26T06:41:36.201Z,4000.00
2022-07-26T06:42:36.144Z,3964.00
2022-07-26T06:43:36.119Z,3936.00
2022-07-26T06:44:36.028Z,3656.00
2022-07-26T06:45:36.031Z,3812.00
2022-07-26T06:46:35.961Z,3876.00
2022-07-26T06:47:35.873Z,4112.00
2022-07-26T06:48:35.835Z,3864.00
2022-07-26T06:49:35.935Z,4912.00
2022-07-26T06:50:35.692Z,5124.00
2022-07-26T06:51:35.640Z,5652.00
2022-07-26T06:52:35.602Z,5292.00
2022-07-26T06:53:35.519Z,5484.00
2022-07-26T06:54:35.508Z,4756.00
2022-07-26T06:55:35.468Z,6520.00
2022-07-26T06:56:35.375Z,3628.00
2022-07-26T06:57:44.896Z,5220.00
2022-07-26T06:58:35.242Z,5908.00
2022-07-26T06:59:35.194Z,5704.00
2022-07-26T07:00:35.122Z,5536.00
2022-07-26T07:01:58.223Z,5568.00
2022-07-26T07:02:35.027Z,4516.00
2022-07-26T07:03:34.975Z,5176.00
2022-07-26T07:04:34.917Z,4100.00
2022-07-26T07:05:34.865Z,4040.00
2022-07-26T07:06:34.811Z,4664.00
2022-07-26T07:07:34.750Z,4860.00
2022-07-26T07:08:34.671Z,4832.00
2022-07-26T07:09:34.996Z,4372.00
2022-07-26T07:10:34.653Z,5052.00
2022-07-26T07:11:34.511Z,5168.00
2022-07-26T07:12:34.478Z,4844.00
2022-07-26T07:13:34.401Z,4568.00
2022-07-26T07:14:34.331Z,4504.00
2022-07-26T07:15:34.300Z,4128.00
2022-07-26T07:16:34.274Z,4812.00
2022-07-26T07:17:34.174Z,4564.00
2022-07-26T07:18:34.125Z,2252.00
2022-07-26T07:19:34.054Z,4496.00
2022-07-26T07:20:33.992Z,4668.00
2022-07-26T07:21:33.953Z,4716.00
2022-07-26T07:22:33.974Z,4964.00
2022-07-26T07:23:33.820Z,5092.00
2022-07-26T07:24:33.767Z,5008.00
2022-07-26T07:25:33.706Z,5324.00
2022-07-26T07:26:33.679Z,4440.00
2022-07-26T07:27:33.630Z,5128.00
2022-07-26T07:28:33.535Z,5700.00
2022-07-26T07:29:33.528Z,5992.00
2022-07-26T07:30:33.429Z,5132.00
2022-07-26T07:31:49.044Z,2672.00
2022-07-26T07:32:33.384Z,2832.00
2022-07-26T07:33:43.649Z,1976.00
2022-07-26T07:34:33.200Z,2036.00
2022-07-26T07:35:33.140Z,2112.00
2022-07-26T07:36:33.095Z,2348.00
2022-07-26T07:37:52.344Z,2044.00
2022-07-26T07:38:32.971Z,1892.00
2022-07-26T07:39:34.987Z,5092.00
2022-07-26T07:40:32.875Z,1776.00
2022-07-26T07:41:32.835Z,7468.00
2022-07-26T07:42:32.745Z,7648.00
2022-07-26T07:43:32.702Z,8144.00
2022-07-26T07:44:32.657Z,7324.00
2022-07-26T07:45:32.577Z,5168.00
2022-07-26T07:46:32.582Z,6848.00
2022-07-26T07:47:32.487Z,7832.00
2022-07-26T07:48:32.450Z,7680.00
2022-07-26T07:49:32.483Z,7900.00
2022-07-26T07:50:32.298Z,2492.00
2022-07-26T07:51:32.255Z,2184.00
2022-07-26T07:52:32.196Z,2596.00
2022-07-26T07:53:32.126Z,2380.00
2022-07-26T07:54:32.069Z,2424.00
2022-07-26T07:55:41.335Z,2088.00
2022-07-26T07:56:31.960Z,2060.00
2022-07-26T07:57:31.916Z,2296.00
2022-07-26T07:58:31.847Z,1740.00
2022-07-26T07:59:31.823Z,1496.00
2022-07-26T08:00:31.756Z,1384.00
2022-07-26T08:01:40.337Z,1268.00
2022-07-26T08:02:31.653Z,1176.00
2022-07-26T08:03:38.525Z,1108.00
2022-07-26T08:04:31.583Z,1080.00
2022-07-26T08:05:31.461Z,1160.00
2022-07-26T08:06:31.397Z,1300.00
2022-07-26T08:07:32.947Z,1372.00
2022-07-26T08:08:31.288Z,1284.00
2022-07-26T08:09:33.856Z,1172.00
2022-07-26T08:10:31.169Z,1100.00
2022-07-26T08:11:31.160Z,1216.00
2022-07-26T08:12:31.071Z,1268.00
2022-07-26T08:13:31.059Z,1192.00
2022-07-26T08:14:30.969Z,1060.00
2022-07-26T08:15:30.954Z,1008.00
2022-07-26T08:16:30.921Z,1052.00
2022-07-26T08:17:30.798Z,1100.00
2022-07-26T08:18:30.741Z,1120.00
2022-07-26T08:19:41.443Z,1056.00
2022-07-26T08:20:30.649Z,972.00
2022-07-26T08:21:30.593Z,956.00
2022-07-26T08:22:30.505Z,928.00
2022-07-26T08:23:30.432Z,908.00
2022-07-26T08:24:30.374Z,920.00
2022-07-26T08:25:30.367Z,1040.00
2022-07-26T08:26:30.257Z,1212.00
2022-07-26T08:27:30.213Z,1584.00
2022-07-26T08:28:46.692Z,2224.00
2022-07-26T08:29:30.086Z,7608.00
2022-07-26T08:30:30.032Z,7460.00
2022-07-26T08:31:30.071Z,7596.00
2022-07-26T08:32:29.958Z,7508.00
2022-07-26T08:33:29.862Z,7484.00
2022-07-26T08:34:30.358Z,7460.00
2022-07-26T08:35:33.045Z,7492.00
2022-07-26T08:36:32.686Z,7488.00
2022-07-26T08:37:29.679Z,7388.00
2022-07-26T08:38:29.760Z,7468.00
2022-07-26T08:39:29.579Z,7488.00
2022-07-26T08:40:29.483Z,7500.00
2022-07-26T08:41:29.405Z,7324.00
2022-07-26T08:42:29.392Z,6708.00
2022-07-26T08:43:29.292Z,7204.00
2022-07-26T08:44:29.313Z,7116.00
2022-07-26T08:45:29.221Z,7180.00
2022-07-26T08:46:29.156Z,1724.00
2022-07-26T08:47:37.965Z,1116.00
2022-07-26T08:48:29.054Z,7220.00
2022-07-26T08:49:29.010Z,7496.00
2022-07-26T08:50:28.900Z,1816.00
2022-07-26T08:51:31.078Z,6500.00
2022-07-26T08:52:31.102Z,7600.00
2022-07-26T08:53:29.587Z,7768.00
2022-07-26T08:54:28.754Z,7624.00
2022-07-26T08:55:32.314Z,2160.00
2022-07-26T08:56:28.748Z,7876.00
2022-07-26T08:57:28.650Z,7752.00
2022-07-26T08:58:28.561Z,1880.00
2022-07-26T08:59:28.489Z,1636.00
2022-07-26T09:00:28.415Z,1588.00
2022-07-26T09:01:28.469Z,1736.00
2022-07-26T09:02:28.371Z,1676.00
2022-07-26T09:03:28.418Z,1452.00
2022-07-26T09:04:32.167Z,1308.00
2022-07-26T09:05:28.184Z,1296.00
2022-07-26T09:06:28.402Z,1472.00
2022-07-26T09:07:28.095Z,1832.00
2022-07-26T09:08:28.758Z,1880.00
2022-07-26T09:09:28.039Z,1776.00
2022-07-26T09:10:28.052Z,1596.00
2022-07-26T09:11:27.851Z,1340.00
2022-07-26T09:12:28.219Z,1256.00
2022-07-26T09:13:28.073Z,1404.00
2022-07-26T09:14:28.284Z,1696.00
2022-07-26T09:15:27.981Z,1796.00
2022-07-26T09:16:27.811Z,1556.00
2022-07-26T09:17:27.989Z,1292.00
2022-07-26T09:18:27.892Z,1076.00
2022-07-26T09:19:27.595Z,920.00
2022-07-26T09:20:28.542Z,808.00
2022-07-26T09:21:27.283Z,752.00
2022-07-26T09:22:27.198Z,748.00
2022-07-26T09:23:29.354Z,764.00
2022-07-26T09:24:27.096Z,792.00
2022-07-26T09:25:27.014Z,880.00
2022-07-26T09:26:27.072Z,1056.00
2022-07-26T09:27:28.344Z,1360.00
2022-07-26T09:28:26.907Z,2256.00
2022-07-26T09:29:26.913Z,2012.00
2022-07-26T09:30:26.734Z,3924.00
2022-07-26T09:31:26.770Z,6824.00
2022-07-26T09:32:26.808Z,6612.00
2022-07-26T09:33:26.794Z,6096.00
2022-07-26T09:34:26.535Z,6212.00
2022-07-26T09:36:26.453Z,2716.00
2022-07-26T09:37:26.371Z,4756.00
2022-07-26T09:38:26.358Z,2208.00
2022-07-26T09:39:33.932Z,2068.00
2022-07-26T09:40:26.189Z,1720.00
2022-07-26T09:41:26.266Z,1876.00
2022-07-26T09:42:29.053Z,5264.00
2022-07-26T09:43:26.001Z,2976.00
2022-07-26T09:44:25.983Z,3480.00
2022-07-26T09:45:25.906Z,5712.00
2022-07-26T09:46:26.060Z,1980.00
2022-07-26T09:47:25.884Z,2028.00
2022-07-26T09:48:25.721Z,1868.00
2022-07-26T09:49:30.917Z,1784.00
2022-07-26T09:50:25.663Z,1704.00
2022-07-26T09:51:25.608Z,1528.00
2022-07-26T09:52:25.517Z,1368.00
2022-07-26T09:53:25.446Z,1240.00
2022-07-26T09:54:25.355Z,1120.00
2022-07-26T09:55:25.362Z,1040.00
2022-07-26T09:56:25.340Z,984.00
2022-07-26T09:57:25.245Z,996.00
2022-07-26T09:58:25.171Z,1088.00
2022-07-26T09:59:25.167Z,1208.00
2022-07-26T10:00:25.091Z,1380.00
2022-07-26T10:01:25.117Z,1576.00
2022-07-26T10:02:25.005Z,1816.00
2022-07-26T10:03:24.893Z,2160.00
2022-07-26T10:04:24.874Z,5560.00
2022-07-26T10:05:24.803Z,5792.00
2022-07-26T10:06:30.066Z,3020.00
2022-07-26T10:07:24.688Z,2736.00
2022-07-26T10:08:24.619Z,2540.00
2022-07-26T10:09:24.595Z,2544.00
2022-07-26T10:10:24.509Z,2820.00
2022-07-26T10:11:24.510Z,2480.00
2022-07-26T10:12:30.072Z,2456.00
2022-07-26T10:13:24.407Z,2360.00
2022-07-26T10:14:24.323Z,2208.00
2022-07-26T10:15:24.224Z,2048.00
2022-07-26T10:16:24.219Z,1888.00
2022-07-26T10:17:29.062Z,1796.00
2022-07-26T10:18:24.065Z,1788.00
2022-07-26T10:19:24.053Z,1728.00
2022-07-26T10:20:24.714Z,1680.00
2022-07-26T10:21:23.884Z,1672.00
2022-07-26T10:22:23.877Z,1632.00
2022-07-26T10:23:23.788Z,1552.00
2022-07-26T10:24:23.765Z,1452.00
2022-07-26T10:25:24.015Z,1348.00
2022-07-26T10:26:23.602Z,1300.00
2022-07-26T10:27:23.577Z,1276.00
2022-07-26T10:28:23.593Z,1272.00
2022-07-26T10:29:23.504Z,1244.00
2022-07-26T10:30:23.641Z,1208.00
2022-07-26T10:31:23.498Z,1172.00
2022-07-26T10:32:23.444Z,1156.00
2022-07-26T10:33:23.243Z,1192.00
2022-07-26T10:34:23.359Z,1216.00
2022-07-26T10:35:23.128Z,1280.00
2022-07-26T10:36:23.193Z,1360.00
2022-07-26T10:37:23.298Z,1456.00
2022-07-26T10:38:22.971Z,1600.00
2022-07-26T10:39:23.010Z,1756.00
2022-07-26T10:40:22.944Z,1816.00
2022-07-26T10:41:22.989Z,2972.00
2022-07-26T10:42:22.886Z,3408.00
2022-07-26T10:43:40.288Z,2920.00
2022-07-26T10:44:22.897Z,2724.00
2022-07-26T10:45:22.924Z,3528.00
2022-07-26T10:46:22.759Z,3760.00
2022-07-26T10:47:22.714Z,3560.00
2022-07-26T10:48:22.377Z,3680.00
2022-07-26T10:49:22.369Z,3624.00
2022-07-26T10:50:22.298Z,3500.00
2022-07-26T10:51:22.224Z,3400.00
2022-07-26T10:52:22.852Z,2376.00
2022-07-26T10:53:22.130Z,2628.00
2022-07-26T10:54:22.033Z,1844.00
2022-07-26T10:55:22.033Z,2784.00
2022-07-26T10:56:21.923Z,3664.00
2022-07-26T10:57:21.948Z,3340.00
2022-07-26T10:58:21.838Z,3512.00
2022-07-26T10:59:45.798Z,4024.00
2022-07-26T11:00:21.741Z,3900.00
2022-07-26T11:01:21.688Z,3604.00
2022-07-26T11:02:21.692Z,3540.00
2022-07-26T11:03:21.630Z,2920.00
2022-07-26T11:04:21.483Z,2832.00
2022-07-26T11:05:21.463Z,1288.00
2022-07-26T11:06:21.397Z,1268.00
2022-07-26T11:07:21.486Z,1336.00
2022-07-26T11:08:21.303Z,1280.00
2022-07-26T11:09:21.499Z,1216.00
2022-07-26T11:10:21.197Z,1148.00
2022-07-26T11:11:21.115Z,3432.00
2022-07-26T11:12:21.111Z,3688.00
2022-07-26T11:13:21.018Z,3684.00
2022-07-26T11:14:21.015Z,2160.00
2022-07-26T11:15:20.938Z,2748.00
2022-07-26T11:16:20.877Z,1720.00
2022-07-26T11:17:20.832Z,1492.00
2022-07-26T11:18:20.744Z,1280.00
2022-07-26T11:19:20.752Z,1128.00
2022-07-26T11:20:20.660Z,1080.00
2022-07-26T11:21:20.560Z,1084.00
2022-07-26T11:22:20.567Z,1072.00
2022-07-26T11:23:20.455Z,1028.00
2022-07-26T11:24:20.381Z,924.00
2022-07-26T11:25:20.446Z,788.00
2022-07-26T11:26:20.356Z,684.00
2022-07-26T11:27:20.267Z,632.00
2022-07-26T11:28:20.173Z,656.00
2022-07-26T11:29:20.100Z,712.00
2022-07-26T11:30:20.184Z,828.00
2022-07-26T11:31:20.311Z,824.00
2022-07-26T11:32:20.465Z,772.00
2022-07-26T11:33:19.986Z,780.00
2022-07-26T11:34:19.901Z,860.00
2022-07-26T11:35:19.811Z,944.00
2022-07-26T11:36:19.819Z,1000.00
2022-07-26T11:37:19.717Z,984.00
2022-07-26T11:38:19.821Z,972.00
2022-07-26T11:39:19.637Z,964.00
2022-07-26T11:40:19.550Z,944.00
2022-07-26T11:41:19.455Z,912.00
2022-07-26T11:42:19.521Z,888.00
2022-07-26T11:43:19.356Z,840.00
2022-07-26T11:44:19.277Z,816.00
2022-07-26T11:45:19.346Z,808.00
2022-07-26T11:46:19.267Z,800.00
2022-07-26T11:47:19.189Z,776.00
2022-07-26T11:48:19.060Z,748.00
2022-07-26T11:49:19.119Z,768.00
2022-07-26T11:50:22.909Z,852.00
2022-07-26T11:51:18.905Z,1048.00
2022-07-26T11:52:24.412Z,1268.00
2022-07-26T11:53:18.790Z,1436.00
2022-07-26T11:54:18.722Z,1576.00
2022-07-26T11:55:18.705Z,1692.00
2022-07-26T11:56:18.727Z,1780.00
2022-07-26T11:57:20.327Z,1876.00
2022-07-26T11:58:18.696Z,1932.00
2022-07-26T11:59:18.445Z,2000.00
2022-07-26T12:00:18.437Z,2080.00
2022-07-26T12:01:18.335Z,2100.00
2022-07-26T12:02:18.324Z,2036.00
2022-07-26T12:03:18.329Z,1952.00
2022-07-26T12:04:18.343Z,1868.00
2022-07-26T12:05:18.852Z,1832.00
2022-07-26T12:06:18.053Z,1796.00
2022-07-26T12:07:17.991Z,1772.00
2022-07-26T12:08:17.885Z,1748.00
2022-07-26T12:09:17.890Z,1764.00
2022-07-26T12:10:17.977Z,1808.00
2022-07-26T12:11:17.803Z,1760.00
2022-07-26T12:12:17.670Z,1696.00
2022-07-26T12:13:18.227Z,1568.00
2022-07-26T12:14:18.727Z,1420.00
2022-07-26T12:15:17.599Z,1336.00
2022-07-26T12:16:17.556Z,1248.00
2022-07-26T12:17:17.427Z,1168.00
2022-07-26T12:18:17.419Z,1104.00
2022-07-26T12:19:17.334Z,1040.00
2022-07-26T12:20:17.675Z,984.00
2022-07-26T12:21:17.222Z,928.00
2022-07-26T12:22:17.155Z,880.00
2022-07-26T12:23:17.058Z,852.00
2022-07-26T12:24:17.019Z,816.00
2022-07-26T12:25:16.965Z,740.00
2022-07-26T12:26:16.977Z,652.00
2022-07-26T12:27:16.874Z,624.00
2022-07-26T12:28:16.863Z,648.00
2022-07-26T12:29:16.758Z,680.00